This is the latest recevied weather packets stored in our database for station/object K1WJY. If no packets are shown the sender has not sent any weather packets the latest 1 day(s).
| Time | Temp. | Humidity | Pressure | Rain* | Wind** | Luminosity | Snow |
|---|---|---|---|---|---|---|---|
| 1778031550 | 11.67° C | 90% | 1011.5 hPa | 0 mm | 0 m/s | 0 W/m² | - |
| 1778031248 | 11.67° C | 89% | 1011.3 hPa | 0 mm | 1.34 m/s, 258° | 0 W/m² | - |
| 1778030943 | 11.67° C | 89% | 1011.1 hPa | 0 mm | 0 m/s | 0 W/m² | - |
| 1778030640 | 12.22° C | 89% | 1011.7 hPa | 0 mm | 2.24 m/s, 145° | 0 W/m² | - |
| 1778030338 | 12.22° C | 88% | 1011.6 hPa | 0 mm | 2.24 m/s, 142° | 0 W/m² | - |
| 1778030035 | 12.22° C | 88% | 1011.6 hPa | 0 mm | 0.89 m/s, 350° | 0 W/m² | - |
| 1778029732 | 12.22° C | 87% | 1011.5 hPa | 0 mm | 1.34 m/s, 256° | 0 W/m² | - |
| 1778029430 | 12.78° C | 87% | 1011.8 hPa | 0 mm | 1.79 m/s, 188° | 0 W/m² | - |
| 1778029126 | 12.78° C | 86% | 1011.7 hPa | 0 mm | 1.34 m/s, 156° | 0 W/m² | - |
| 1778028823 | 12.78° C | 86% | 1011.3 hPa | 0 mm | 1.79 m/s, 112° | 0 W/m² | - |
| 1778028519 | 12.78° C | 86% | 1011.2 hPa | 0 mm | 0.45 m/s, 259° | 0 W/m² | - |
| 1778028217 | 12.78° C | 85% | 1011.3 hPa | 0 mm | 0 m/s | 0 W/m² | - |
| 1778027913 | 12.78° C | 85% | 1011.3 hPa | 0 mm | 0 m/s | 0 W/m² | - |
| 1778027609 | 12.78° C | 85% | 1011.1 hPa | 0 mm | 2.24 m/s, 120° | 0 W/m² | - |
| 1778027306 | 12.78° C | 85% | 1011.3 hPa | 0 mm | 1.79 m/s, 151° | 0 W/m² | - |
| 1778027002 | 12.78° C | 86% | 1012.1 hPa | 0 mm | 0.89 m/s, 303° | 0 W/m² | - |
| 1778026698 | 12.22° C | 86% | 1011.8 hPa | 0 mm | 2.24 m/s, 277° | 0 W/m² | - |
| 1778026395 | 12.22° C | 87% | 1011.9 hPa | 0 mm | 0.89 m/s, 129° | 0 W/m² | - |
| 1778026092 | 11.67° C | 88% | 1011.4 hPa | 0 mm | 1.34 m/s, 179° | 0 W/m² | - |
| 1778025790 | 11.67° C | 88% | 1011.8 hPa | 0 mm | 0.89 m/s, 280° | 0 W/m² | - |
| 1778025486 | 11.67° C | 89% | 1010.3 hPa | 0 mm | 2.24 m/s, 221° | 0 W/m² | - |
| 1778025184 | 11.67° C | 89% | 1010 hPa | 0 mm | 2.68 m/s, 213° | 0 W/m² | - |
| 1778024881 | 11.67° C | 89% | 1009.8 hPa | 0 mm | 1.79 m/s, 196° | 0 W/m² | - |
| 1778024579 | 11.67° C | 89% | 1009.8 hPa | 0 mm | 0.89 m/s, 314° | 1 W/m² | - |
| 1778024275 | 11.67° C | 88% | 1009.5 hPa | 0 mm | 2.24 m/s, 254° | 3 W/m² | - |
* Rain latest hour (hover to see other rain measurements)
** Current wind speed in m/s (hover to see current wind gust speed)